createdAt,value
2018-01-31T02:51:32.586Z,75.70
2018-01-31T02:54:03.046Z,80.20
2018-01-31T02:56:33.233Z,80.40
2018-01-31T02:59:04.901Z,75.60
2018-01-31T03:01:36.659Z,75.30
2018-01-31T03:06:46.095Z,71.40
2018-01-31T03:11:56.456Z,67.50
2018-01-31T03:14:27.669Z,64.70
2018-01-31T03:16:57.605Z,64.90
2018-01-31T03:25:17.301Z,58.80
2018-01-31T03:30:48.179Z,60.00
2018-01-31T03:39:21.860Z,62.80
2018-01-31T03:45:07.860Z,57.10
2018-01-31T03:47:42.881Z,56.70
2018-01-31T03:50:12.018Z,57.70
2018-01-31T03:52:43.811Z,61.00
2018-01-31T03:55:15.448Z,60.90
2018-01-31T03:57:52.617Z,58.90
2018-01-31T04:00:21.088Z,60.90
2018-01-31T04:02:58.374Z,62.10
2018-01-31T04:05:30.228Z,59.50
2018-01-31T04:11:08.570Z,58.60
2018-01-31T04:13:42.614Z,59.20
2018-01-31T04:16:13.822Z,61.30
2018-01-31T04:18:57.779Z,63.10
2018-01-31T04:21:30.916Z,60.10
2018-01-31T04:24:02.225Z,61.60
2018-01-31T04:26:35.142Z,60.90
2018-01-31T04:29:07.439Z,61.60
2018-01-31T04:31:37.885Z,62.30
2018-01-31T04:34:07.256Z,62.40
2018-01-31T04:36:35.415Z,65.40
2018-01-31T04:39:09.538Z,65.00
2018-01-31T04:41:39.818Z,65.40
2018-01-31T04:44:10.125Z,67.10
2018-01-31T04:46:41.494Z,69.80
2018-01-31T04:49:12.627Z,70.50
2018-01-31T04:51:41.966Z,67.40
2018-01-31T04:54:10.204Z,69.80
2018-01-31T04:56:41.934Z,69.80
2018-01-31T04:59:12.009Z,65.40
2018-01-31T05:01:44.340Z,65.50
2018-01-31T05:04:17.762Z,65.10
2018-01-31T05:06:47.180Z,64.90
2018-01-31T05:09:16.131Z,62.10
2018-01-31T05:11:44.672Z,60.80
2018-01-31T05:14:15.072Z,60.30
2018-01-31T05:16:47.373Z,60.30
2018-01-31T05:19:17.494Z,63.50
2018-01-31T05:22:00.681Z,62.40
2018-01-31T05:24:33.760Z,59.80
2018-01-31T05:27:02.007Z,60.50
2018-01-31T05:29:31.701Z,60.60
2018-01-31T05:32:02.583Z,60.60
2018-01-31T05:34:31.919Z,60.60
2018-01-31T05:37:03.562Z,57.80
2018-01-31T05:39:40.119Z,58.40
2018-01-31T05:42:10.935Z,61.00
2018-01-31T05:44:39.953Z,60.70
2018-01-31T05:49:46.252Z,61.60
2018-01-31T05:52:15.835Z,61.00
2018-01-31T05:54:45.501Z,61.20
2018-01-31T05:57:16.731Z,61.60
2018-01-31T05:59:46.208Z,61.80
2018-01-31T06:02:16.438Z,62.00
2018-01-31T06:04:47.944Z,61.30
2018-01-31T06:07:18.260Z,65.20
2018-01-31T06:09:51.001Z,64.20
2018-01-31T06:12:22.147Z,64.20
2018-01-31T06:14:52.435Z,63.30
2018-01-31T06:17:22.236Z,65.50
2018-01-31T06:19:51.520Z,66.40
2018-01-31T06:22:21.454Z,66.70
2018-01-31T06:24:51.601Z,63.10
2018-01-31T06:27:20.583Z,63.10
2018-01-31T06:29:54.755Z,61.20
2018-01-31T06:32:27.017Z,63.70
2018-01-31T06:34:55.205Z,63.90
2018-01-31T06:37:27.174Z,63.30
2018-01-31T06:39:57.928Z,59.00
2018-01-31T06:42:26.934Z,61.30
2018-01-31T06:44:57.855Z,60.40
2018-01-31T06:47:27.394Z,59.00
2018-01-31T06:49:59.633Z,58.60
2018-01-31T06:52:31.205Z,58.60
2018-01-31T06:55:00.198Z,58.30
2018-01-31T06:57:30.498Z,59.60
2018-01-31T07:00:00.541Z,56.80
2018-01-31T07:02:30.624Z,56.80
2018-01-31T07:05:00.924Z,56.00
2018-01-31T07:07:32.381Z,57.80
2018-01-31T07:10:02.000Z,57.10
2018-01-31T07:12:32.302Z,57.90
2018-01-31T07:15:00.929Z,58.10
2018-01-31T07:17:34.124Z,56.50
2018-01-31T07:20:05.580Z,56.50
2018-01-31T07:22:35.102Z,56.40
2018-01-31T07:25:07.547Z,55.90
2018-01-31T07:27:40.169Z,53.50
2018-01-31T07:30:09.561Z,53.60
2018-01-31T07:32:38.541Z,55.60
2018-01-31T07:35:08.028Z,53.20
2018-01-31T07:37:38.386Z,52.60
2018-01-31T07:40:08.973Z,52.90
2018-01-31T07:42:40.824Z,55.90
2018-01-31T07:45:09.949Z,54.30
2018-01-31T07:47:45.450Z,51.90
2018-01-31T07:50:18.307Z,54.70
2018-01-31T07:52:54.303Z,54.60
2018-01-31T07:55:25.295Z,54.40
2018-01-31T07:57:57.817Z,51.20
2018-01-31T08:00:29.129Z,51.20
2018-01-31T08:03:01.387Z,51.40
2018-01-31T08:05:29.553Z,53.40
2018-01-31T08:07:59.524Z,52.80
2018-01-31T08:10:28.458Z,50.60
2018-01-31T08:12:56.857Z,51.30
2018-01-31T08:15:25.278Z,50.50
2018-01-31T08:17:54.315Z,51.50
2018-01-31T08:20:22.961Z,51.00
2018-01-31T08:22:58.053Z,49.00
2018-01-31T08:25:33.121Z,51.10
2018-01-31T08:28:03.512Z,51.20
2018-01-31T08:30:34.664Z,48.40
2018-01-31T08:33:06.289Z,50.00
2018-01-31T08:35:41.787Z,47.40
2018-01-31T08:38:10.502Z,47.70
2018-01-31T08:40:39.444Z,48.50
2018-01-31T08:43:07.615Z,48.60
2018-01-31T08:45:37.520Z,47.90
2018-01-31T08:48:08.376Z,47.40
2018-01-31T08:50:36.515Z,47.30
2018-01-31T08:53:04.706Z,46.40
2018-01-31T08:55:32.873Z,44.30
2018-01-31T08:58:01.128Z,46.60
2018-01-31T09:00:29.282Z,45.80
2018-01-31T09:02:58.168Z,47.40
2018-01-31T09:05:26.322Z,46.60
2018-01-31T09:07:55.465Z,42.80
2018-01-31T09:10:24.272Z,45.40
2018-01-31T09:12:52.436Z,45.80
2018-01-31T09:15:20.613Z,43.30
2018-01-31T09:17:49.802Z,44.50
2018-01-31T09:20:17.999Z,45.30
2018-01-31T09:22:46.173Z,44.20
2018-01-31T09:25:14.351Z,42.20
2018-01-31T09:27:49.732Z,43.60
2018-01-31T09:30:17.861Z,43.70
2018-01-31T09:32:52.233Z,44.50
2018-01-31T09:35:21.202Z,44.20
2018-01-31T09:37:56.696Z,44.10
2018-01-31T09:40:28.464Z,43.90
2018-01-31T09:42:56.625Z,42.80
2018-01-31T09:45:24.873Z,43.10
2018-01-31T09:47:53.120Z,43.10
2018-01-31T09:50:21.345Z,42.50
2018-01-31T09:52:50.265Z,41.10
2018-01-31T09:55:19.083Z,41.10
2018-01-31T09:57:48.240Z,42.30
2018-01-31T10:00:16.510Z,41.10
2018-01-31T10:02:44.657Z,42.20
2018-01-31T10:05:13.367Z,40.00
2018-01-31T10:07:41.529Z,41.30
2018-01-31T10:10:10.458Z,37.60
2018-01-31T10:12:38.656Z,38.50
2018-01-31T10:15:07.954Z,39.40
2018-01-31T10:17:36.146Z,40.00
2018-01-31T10:20:04.321Z,41.50
2018-01-31T10:22:32.501Z,37.70
2018-01-31T10:25:00.896Z,40.90
2018-01-31T10:27:29.066Z,40.20
2018-01-31T10:29:58.553Z,39.00
2018-01-31T10:32:26.719Z,39.00
2018-01-31T10:34:54.910Z,38.30
2018-01-31T10:37:25.908Z,39.50
2018-01-31T10:39:56.178Z,37.50
2018-01-31T10:42:25.523Z,39.60
2018-01-31T10:44:53.686Z,39.30
2018-01-31T10:47:22.932Z,43.30
2018-01-31T10:49:52.122Z,41.70
2018-01-31T10:52:20.282Z,44.70
2018-01-31T10:57:28.864Z,45.00
2018-01-31T10:59:46.520Z,41.20
2018-01-31T11:02:15.330Z,41.50
2018-01-31T11:04:43.751Z,42.50
2018-01-31T11:07:11.914Z,38.60
2018-01-31T11:09:40.092Z,42.60
2018-01-31T11:12:08.246Z,41.30
2018-01-31T11:14:38.425Z,41.50
2018-01-31T11:17:06.564Z,43.30
2018-01-31T11:19:35.022Z,42.30
2018-01-31T11:22:04.038Z,42.00
2018-01-31T11:24:32.481Z,44.80
2018-01-31T11:27:00.637Z,44.10
2018-01-31T11:29:33.522Z,44.70
2018-01-31T11:32:01.789Z,43.40
2018-01-31T11:34:29.937Z,46.40
2018-01-31T11:36:58.862Z,46.70
2018-01-31T11:39:27.024Z,46.70
2018-01-31T11:41:55.177Z,45.70
2018-01-31T11:44:24.098Z,45.40
2018-01-31T11:46:53.225Z,45.50
2018-01-31T11:49:24.633Z,44.60
2018-01-31T11:51:52.798Z,46.10
2018-01-31T11:54:27.924Z,42.50
2018-01-31T11:56:59.466Z,43.40
2018-01-31T11:59:30.861Z,43.40
2018-01-31T12:02:02.834Z,44.40
2018-01-31T12:04:41.510Z,45.40
2018-01-31T12:07:13.480Z,44.00
2018-01-31T12:09:41.632Z,44.30
2018-01-31T12:12:18.858Z,45.50
2018-01-31T12:14:58.958Z,45.60
2018-01-31T12:17:31.488Z,43.90
2018-01-31T12:20:06.986Z,45.40
2018-01-31T12:22:47.799Z,45.30
2018-01-31T12:25:29.838Z,45.60
2018-01-31T12:28:12.869Z,45.90
2018-01-31T12:30:47.667Z,43.50
2018-01-31T12:33:38.743Z,45.50
2018-01-31T12:36:30.537Z,45.90
2018-01-31T12:38:59.363Z,47.60
2018-01-31T12:41:27.082Z,46.40
2018-01-31T12:43:56.254Z,45.80
2018-01-31T12:46:49.029Z,46.00
2018-01-31T12:49:29.033Z,43.90
2018-01-31T12:52:28.882Z,41.80
2018-01-31T12:55:11.562Z,41.80
2018-01-31T12:57:53.785Z,44.30
2018-01-31T13:00:34.721Z,47.00
2018-01-31T13:03:09.525Z,48.00
2018-01-31T13:05:50.081Z,48.40
2018-01-31T13:11:29.950Z,48.60
2018-01-31T13:14:11.095Z,48.00
2018-01-31T13:19:49.147Z,50.70
2018-01-31T13:22:30.168Z,49.50
2018-01-31T13:25:11.079Z,49.50
2018-01-31T13:28:05.040Z,49.20
2018-01-31T13:30:50.257Z,48.80
2018-01-31T13:33:30.795Z,50.10
2018-01-31T13:36:10.939Z,50.10
2018-01-31T13:38:57.766Z,47.80
2018-01-31T13:41:37.722Z,47.70
2018-01-31T13:44:22.221Z,54.30
2018-01-31T13:47:03.235Z,53.00
2018-01-31T13:49:46.150Z,49.50
2018-01-31T13:52:31.448Z,51.10
2018-01-31T13:55:12.624Z,49.50
2018-01-31T13:57:52.622Z,50.10
2018-01-31T14:00:49.090Z,49.30
2018-01-31T14:03:29.864Z,49.30
2018-01-31T14:06:09.902Z,46.80
2018-01-31T14:08:50.431Z,46.50
2018-01-31T14:11:30.310Z,48.80
2018-01-31T14:17:11.447Z,44.20
2018-01-31T14:19:52.073Z,44.00
2018-01-31T14:22:44.938Z,46.50
2018-01-31T14:25:28.517Z,45.70
2018-01-31T14:28:12.387Z,44.70
2018-01-31T14:30:53.459Z,45.20
2018-01-31T14:33:33.361Z,47.00
2018-01-31T14:36:13.269Z,46.10
2018-01-31T14:38:41.682Z,44.80
2018-01-31T14:41:10.413Z,47.50
2018-01-31T14:43:40.606Z,46.40
2018-01-31T14:46:09.551Z,47.80
2018-01-31T14:48:39.649Z,44.50
2018-01-31T14:51:07.463Z,46.10
2018-01-31T14:53:37.218Z,45.10
2018-01-31T14:56:06.749Z,45.10
2018-01-31T14:58:43.519Z,44.00
2018-01-31T15:01:13.951Z,44.00
2018-01-31T15:03:50.802Z,44.40
2018-01-31T15:06:18.515Z,47.60
2018-01-31T15:08:47.087Z,45.30
2018-01-31T15:11:15.509Z,45.20
2018-01-31T15:13:45.806Z,47.40
2018-01-31T15:16:15.248Z,49.00
2018-01-31T15:18:46.492Z,47.70
2018-01-31T15:21:17.075Z,47.20
2018-01-31T15:23:46.712Z,47.80
2018-01-31T15:26:15.154Z,48.70
2018-01-31T15:28:42.872Z,48.70
2018-01-31T15:31:10.527Z,49.60
2018-01-31T15:33:39.218Z,47.70
2018-01-31T15:36:06.897Z,49.60
2018-01-31T15:38:34.654Z,49.50
2018-01-31T15:41:02.319Z,51.20
2018-01-31T15:43:30.182Z,51.20
2018-01-31T15:45:58.367Z,48.20
2018-01-31T15:48:28.122Z,49.50
2018-01-31T15:50:56.379Z,48.40
2018-01-31T15:53:24.044Z,49.50
2018-01-31T15:55:53.552Z,49.40
2018-01-31T15:58:23.007Z,51.30
2018-01-31T16:00:54.149Z,47.50
2018-01-31T16:03:22.722Z,49.40
2018-01-31T16:05:52.458Z,48.60
2018-01-31T16:08:21.021Z,49.30
2018-01-31T16:10:49.064Z,49.80
2018-01-31T16:13:17.720Z,49.90
2018-01-31T16:15:46.709Z,49.80
2018-01-31T16:18:29.408Z,50.10
2018-01-31T16:21:19.971Z,51.00
2018-01-31T16:23:48.866Z,50.70
2018-01-31T16:26:22.320Z,53.00
2018-01-31T16:29:02.338Z,52.50
2018-01-31T16:31:43.148Z,52.10
2018-01-31T16:34:12.300Z,52.10
2018-01-31T16:36:42.643Z,52.50
2018-01-31T16:39:14.302Z,52.70
2018-01-31T16:41:44.696Z,52.40
2018-01-31T16:44:12.898Z,52.10
2018-01-31T16:49:19.288Z,52.20
2018-01-31T16:51:49.214Z,53.00
2018-01-31T16:54:20.714Z,53.60
2018-01-31T16:56:51.656Z,53.50
2018-01-31T16:59:25.812Z,53.10
2018-01-31T17:01:55.538Z,52.70
2018-01-31T17:04:25.584Z,53.40
2018-01-31T17:06:59.736Z,53.60
2018-01-31T17:09:36.121Z,53.80
2018-01-31T17:12:09.567Z,53.40
2018-01-31T17:14:38.177Z,52.90
2018-01-31T17:17:10.961Z,53.20
2018-01-31T17:19:40.256Z,52.60
2018-01-31T17:22:09.326Z,53.40
2018-01-31T17:24:37.476Z,52.30
2018-01-31T17:27:06.400Z,52.20
2018-01-31T17:29:34.712Z,52.10
2018-01-31T17:32:05.428Z,53.70
2018-01-31T17:34:34.498Z,55.00
2018-01-31T17:37:04.144Z,56.00
2018-01-31T17:39:32.296Z,56.70
2018-01-31T17:42:01.208Z,59.40
2018-01-31T17:44:30.900Z,59.50
2018-01-31T17:47:03.112Z,58.50
2018-01-31T17:49:34.958Z,63.40
2018-01-31T17:52:05.373Z,61.60
2018-01-31T17:54:35.123Z,63.70
2018-01-31T17:57:05.622Z,60.80
2018-01-31T17:59:34.987Z,66.20
2018-01-31T18:02:07.903Z,62.90
2018-01-31T18:04:36.131Z,65.80
2018-01-31T18:07:07.218Z,69.20
2018-01-31T18:12:12.221Z,69.70
2018-01-31T18:14:41.686Z,74.00
2018-01-31T18:17:13.188Z,73.90
2018-01-31T18:19:41.399Z,73.00
2018-01-31T18:22:12.589Z,73.10
2018-01-31T18:24:43.663Z,72.00
2018-01-31T18:27:16.471Z,73.80
2018-01-31T18:29:46.166Z,73.90
2018-01-31T18:32:19.190Z,78.00
2018-01-31T18:34:49.220Z,77.90
2018-01-31T18:37:20.085Z,77.80
2018-01-31T18:39:50.524Z,76.70
2018-01-31T18:42:20.184Z,76.40
2018-01-31T18:44:51.926Z,81.10
2018-01-31T18:47:23.976Z,81.50
2018-01-31T18:49:56.834Z,81.90
2018-01-31T18:52:25.048Z,86.60
2018-01-31T18:57:51.283Z,82.20
2018-01-31T19:00:22.393Z,86.70
2018-01-31T19:02:59.126Z,84.50
2018-01-31T19:05:27.454Z,90.20
2018-01-31T19:07:57.178Z,87.50
2018-01-31T19:10:28.831Z,88.40
2018-01-31T19:12:57.705Z,90.40
2018-01-31T19:15:26.232Z,91.20
2018-01-31T19:17:58.425Z,87.10
2018-01-31T19:23:04.960Z,89.60
2018-01-31T19:25:36.757Z,90.60
2018-01-31T19:28:11.193Z,90.60
2018-01-31T19:30:40.557Z,88.70
2018-01-31T19:33:09.290Z,90.40
2018-01-31T19:35:42.942Z,89.60
2018-01-31T19:38:12.867Z,89.60
2018-01-31T19:40:43.509Z,91.10
2018-01-31T19:43:15.656Z,90.70
2018-01-31T19:45:45.884Z,89.50
2018-01-31T19:48:16.548Z,88.90
2018-01-31T19:50:45.664Z,88.70
2018-01-31T19:53:14.603Z,92.30
2018-01-31T19:55:50.222Z,92.30
2018-01-31T19:58:22.109Z,89.80
2018-01-31T20:00:52.408Z,89.70
2018-01-31T20:03:23.751Z,92.10
2018-01-31T20:06:00.531Z,92.10
2018-01-31T20:08:36.379Z,92.80
2018-01-31T20:11:14.450Z,92.20
2018-01-31T20:13:46.281Z,90.80
2018-01-31T20:16:14.524Z,90.60
2018-01-31T20:18:47.225Z,92.20
2018-01-31T20:21:18.084Z,91.80
2018-01-31T20:26:45.130Z,91.20
2018-01-31T20:31:58.740Z,91.30
2018-01-31T20:43:13.425Z,91.10
2018-01-31T20:45:47.581Z,91.00
2018-01-31T20:53:59.193Z,92.30
2018-01-31T20:59:31.122Z,91.70
2018-01-31T21:02:16.688Z,91.70
2018-01-31T21:04:49.033Z,93.40
2018-01-31T21:07:20.832Z,93.70
2018-01-31T21:09:51.499Z,93.50
2018-01-31T21:12:30.253Z,92.90
2018-01-31T21:15:01.287Z,92.40
2018-01-31T21:17:33.391Z,92.90
2018-01-31T21:20:07.731Z,93.00
2018-01-31T21:22:44.883Z,93.20
2018-01-31T21:25:17.474Z,92.40
2018-01-31T21:27:54.390Z,91.30
2018-01-31T21:33:00.485Z,93.80
2018-01-31T21:35:35.135Z,93.40
2018-01-31T21:38:15.144Z,92.80
2018-01-31T21:50:35.129Z,93.40
2018-01-31T21:53:03.405Z,94.00
2018-01-31T21:55:32.031Z,94.90
2018-01-31T21:58:01.912Z,95.00
2018-01-31T22:00:32.666Z,95.60
2018-01-31T22:03:02.888Z,94.70
2018-01-31T22:05:33.576Z,94.10
2018-01-31T22:08:03.547Z,92.90
2018-01-31T22:10:33.344Z,95.00
2018-01-31T22:15:42.916Z,92.40
2018-01-31T22:18:17.742Z,94.10
2018-01-31T22:20:55.294Z,94.50
2018-01-31T22:23:32.516Z,94.50
2018-01-31T22:26:02.370Z,94.20
2018-01-31T22:28:35.110Z,94.10
2018-01-31T22:31:06.634Z,94.50
2018-01-31T22:33:37.476Z,94.10
2018-01-31T22:36:06.906Z,92.90
2018-01-31T22:38:37.275Z,93.40
2018-01-31T22:41:06.877Z,94.50
2018-01-31T22:43:36.792Z,94.40
2018-01-31T22:46:06.842Z,94.10
2018-01-31T22:48:38.106Z,94.10
2018-01-31T22:51:08.180Z,92.30
2018-01-31T22:53:37.466Z,93.50
2018-01-31T22:56:10.376Z,93.90
2018-01-31T22:58:41.522Z,94.70
2018-01-31T23:01:10.629Z,94.70
2018-01-31T23:03:40.244Z,93.40
2018-01-31T23:06:08.449Z,94.10
2018-01-31T23:08:39.916Z,93.80
2018-01-31T23:11:10.431Z,94.00
2018-01-31T23:13:44.703Z,94.10
2018-01-31T23:16:14.960Z,94.20
2018-01-31T23:18:43.986Z,95.10
2018-01-31T23:21:14.177Z,94.70
2018-01-31T23:23:42.740Z,93.00
2018-01-31T23:28:55.282Z,94.20
2018-01-31T23:31:26.364Z,92.90
2018-01-31T23:33:58.946Z,93.20
2018-01-31T23:36:28.299Z,94.20
2018-01-31T23:38:58.846Z,93.90
2018-01-31T23:41:32.102Z,93.40
2018-01-31T23:44:05.030Z,93.80
2018-01-31T23:46:36.170Z,93.40
2018-01-31T23:49:06.212Z,94.20
2018-01-31T23:51:37.294Z,94.40
2018-01-31T23:54:07.737Z,94.10
2018-01-31T23:56:39.777Z,94.10
2018-01-31T23:59:08.909Z,94.50
